Time;durP1;ratioP1;P1;durP2;ratioP2;P2;SDS_P1;SDS_P2;PMS_P1;PMS_P2;Temp;Humidity;BMP_temperature;BMP_pressure;BME280_temperature;BME280_humidity;BME280_pressure;Samples;Min_cycle;Max_cycle;Signal;HPM_P1;HPM_P2
2023/04/04 00:00:45;;;;;;;11.02;5.13;;;;;;;;;;5014816;28;20302;-64
2023/04/04 00:03:11;;;;;;;6.53;4.83;;;;;;;;;;5032752;28;20235;-64
2023/04/04 00:05:36;;;;;;;9.23;4.43;;;;;;;;;;5032482;28;20416;-64
2023/04/04 00:08:03;;;;;;;5.70;4.67;;;;;;;;;;5032482;28;20411;-64
2023/04/04 00:10:29;;;;;;;4.15;3.83;;;;;;;;;;5032471;28;20513;-64
2023/04/04 00:12:55;;;;;;;5.65;4.05;;;;;;;;;;5032393;28;20200;-64
2023/04/04 00:15:24;;;;;;;4.67;3.80;;;;;;;;;;5032530;28;20652;-64
2023/04/04 00:17:50;;;;;;;4.00;3.75;;;;;;;;;;5032377;28;20398;-64
2023/04/04 00:20:16;;;;;;;6.97;3.38;;;;;;;;;;5014595;28;20652;-64
2023/04/04 00:22:42;;;;;;;5.13;3.75;;;;;;;;;;5032358;28;20180;-64
2023/04/04 00:25:09;;;;;;;3.57;3.47;;;;;;;;;;5032349;28;20180;-64
2023/04/04 00:27:35;;;;;;;3.33;3.03;;;;;;;;;;5032569;28;20419;-64
2023/04/04 00:30:01;;;;;;;3.50;3.20;;;;;;;;;;5032097;28;20191;-64
2023/04/04 00:32:30;;;;;;;3.63;3.50;;;;;;;;;;5032169;28;20773;-64
2023/04/04 00:34:56;;;;;;;3.00;2.80;;;;;;;;;;5032086;28;20993;-64
2023/04/04 00:37:22;;;;;;;4.47;3.63;;;;;;;;;;5032158;28;20558;-64
2023/04/04 00:39:51;;;;;;;4.37;3.03;;;;;;;;;;5032200;28;20200;-64
2023/04/04 00:42:17;;;;;;;3.75;3.00;;;;;;;;;;5031999;28;20781;-64
2023/04/04 00:44:45;;;;;;;3.13;2.72;;;;;;;;;;5032161;28;20177;-64
2023/04/04 00:47:14;;;;;;;3.58;3.30;;;;;;;;;;5032237;28;20169;-64
2023/04/04 00:49:40;;;;;;;3.25;2.95;;;;;;;;;;5032023;28;20180;-64
2023/04/04 00:52:06;;;;;;;3.23;3.03;;;;;;;;;;5031702;28;20217;-64
2023/04/04 00:54:33;;;;;;;3.75;3.05;;;;;;;;;;5032080;28;20440;-64
2023/04/04 00:57:00;;;;;;;2.65;2.45;;;;;;;;;;5031854;28;20220;-64
2023/04/04 00:59:27;;;;;;;2.38;2.28;;;;;;;;;;5033848;28;20181;-64
2023/04/04 01:01:53;;;;;;;2.13;2.13;;;;;;;;;;5018013;28;20231;-68
2023/04/04 01:04:22;;;;;;;2.70;2.60;;;;;;;;;;5036320;28;20187;-64
2023/04/04 01:06:48;;;;;;;4.45;2.88;;;;;;;;;;5035790;28;20549;-64
2023/04/04 01:09:15;;;;;;;2.88;2.78;;;;;;;;;;5035938;28;20699;-64
2023/04/04 01:11:41;;;;;;;3.42;2.85;;;;;;;;;;5036025;28;20215;-64
2023/04/04 01:14:07;;;;;;;3.15;3.00;;;;;;;;;;5035644;28;20187;-64
2023/04/04 01:16:34;;;;;;;3.03;2.93;;;;;;;;;;5018291;28;20176;-64
2023/04/04 01:19:00;;;;;;;2.92;2.78;;;;;;;;;;5035551;28;20991;-64
2023/04/04 01:21:26;;;;;;;5.60;2.90;;;;;;;;;;5035700;28;20180;-64
2023/04/04 01:23:56;;;;;;;2.58;2.50;;;;;;;;;;5018046;28;20934;-64
2023/04/04 01:26:26;;;;;;;2.80;2.70;;;;;;;;;;5035831;28;20660;-64
2023/04/04 01:28:52;;;;;;;2.83;2.63;;;;;;;;;;5035558;28;20188;-64
2023/04/04 01:31:21;;;;;;;2.80;2.50;;;;;;;;;;5035454;28;20212;-64
2023/04/04 01:33:52;;;;;;;3.40;3.10;;;;;;;;;;5035612;28;20177;-64
2023/04/04 01:36:22;;;;;;;4.50;2.80;;;;;;;;;;5035638;28;20201;-64
2023/04/04 01:38:52;;;;;;;2.72;2.63;;;;;;;;;;5035340;28;20173;-64
2023/04/04 01:41:20;;;;;;;2.33;2.30;;;;;;;;;;5035583;28;20769;-64
2023/04/04 01:43:49;;;;;;;3.38;2.40;;;;;;;;;;5035846;28;20207;-64
2023/04/04 01:46:16;;;;;;;2.22;2.13;;;;;;;;;;5017624;28;20185;-64
2023/04/04 01:48:42;;;;;;;2.60;2.40;;;;;;;;;;5035322;28;20611;-64
2023/04/04 01:51:09;;;;;;;2.55;2.15;;;;;;;;;;5016996;28;20209;-64
2023/04/04 01:53:35;;;;;;;2.60;2.40;;;;;;;;;;5035031;28;20176;-64
2023/04/04 01:56:01;;;;;;;3.13;2.85;;;;;;;;;;5034999;28;20177;-64
2023/04/04 01:58:27;;;;;;;4.15;2.50;;;;;;;;;;5034980;28;20201;-64
2023/04/04 02:00:55;;;;;;;2.60;2.50;;;;;;;;;;5017068;28;20278;-64
2023/04/04 02:03:21;;;;;;;2.25;2.25;;;;;;;;;;5034591;28;20534;-64
2023/04/04 02:05:49;;;;;;;2.90;2.42;;;;;;;;;;5034798;28;20679;-64
2023/04/04 02:08:18;;;;;;;2.60;2.50;;;;;;;;;;5034391;28;20208;-64
2023/04/04 02:10:44;;;;;;;2.60;2.50;;;;;;;;;;5034232;28;20292;-64
2023/04/04 02:13:12;;;;;;;2.33;2.23;;;;;;;;;;5034283;28;20177;-64
2023/04/04 02:15:38;;;;;;;2.30;2.30;;;;;;;;;;5034560;28;20462;-64
2023/04/04 02:18:04;;;;;;;2.97;2.78;;;;;;;;;;5034464;28;20216;-64
2023/04/04 02:20:30;;;;;;;2.77;2.60;;;;;;;;;;5034456;28;20236;-64
2023/04/04 02:22:56;;;;;;;2.65;2.45;;;;;;;;;;5034509;28;20446;-64
2023/04/04 02:25:25;;;;;;;3.03;2.20;;;;;;;;;;5034385;28;20280;-64
2023/04/04 02:27:51;;;;;;;2.58;2.30;;;;;;;;;;5034594;28;20553;-64
2023/04/04 02:30:20;;;;;;;2.80;2.60;;;;;;;;;;5034177;28;20228;-64
2023/04/04 02:32:46;;;;;;;2.25;2.25;;;;;;;;;;5034406;28;20588;-64
2023/04/04 02:35:12;;;;;;;2.97;2.67;;;;;;;;;;5016315;28;20189;-64
2023/04/04 02:37:38;;;;;;;3.60;2.43;;;;;;;;;;5033979;28;20201;-64
2023/04/04 02:40:06;;;;;;;6.23;2.67;;;;;;;;;;5034603;28;20447;-68
2023/04/04 02:42:32;;;;;;;2.63;2.50;;;;;;;;;;5034704;28;20430;-68
2023/04/04 02:44:58;;;;;;;2.50;2.40;;;;;;;;;;5034344;28;20256;-68
2023/04/04 02:47:24;;;;;;;3.47;3.07;;;;;;;;;;5034088;28;20435;-68
2023/04/04 02:49:50;;;;;;;2.20;2.10;;;;;;;;;;5034246;28;20412;-68
2023/04/04 02:52:17;;;;;;;2.10;2.10;;;;;;;;;;5016904;28;20463;-68
2023/04/04 02:54:43;;;;;;;4.07;2.42;;;;;;;;;;5017019;28;20427;-68
2023/04/04 02:57:10;;;;;;;3.20;2.53;;;;;;;;;;5034822;28;20173;-68
2023/04/04 02:59:36;;;;;;;2.40;2.30;;;;;;;;;;5034159;28;20197;-68
2023/04/04 03:02:02;;;;;;;2.50;2.30;;;;;;;;;;5034305;28;20565;-68
2023/04/04 03:04:28;;;;;;;2.30;2.10;;;;;;;;;;5033571;28;20435;-68
2023/04/04 03:06:54;;;;;;;3.17;2.85;;;;;;;;;;5033865;28;20420;-68
2023/04/04 03:09:20;;;;;;;3.30;3.20;;;;;;;;;;5033673;28;20227;-68
2023/04/04 03:11:46;;;;;;;2.53;2.43;;;;;;;;;;5033350;28;20459;-68
2023/04/04 03:14:12;;;;;;;2.60;2.10;;;;;;;;;;5033832;28;20439;-68
2023/04/04 03:16:38;;;;;;;2.70;2.60;;;;;;;;;;5033331;28;20640;-68
2023/04/04 03:19:04;;;;;;;2.70;2.50;;;;;;;;;;5033544;28;20416;-68
2023/04/04 03:21:32;;;;;;;2.55;2.33;;;;;;;;;;5032604;28;20284;-68
2023/04/04 03:23:58;;;;;;;3.40;2.75;;;;;;;;;;5033440;28;20675;-68
2023/04/04 03:26:27;;;;;;;2.77;2.60;;;;;;;;;;5033324;28;20205;-68
2023/04/04 03:28:55;;;;;;;2.92;2.70;;;;;;;;;;5033217;28;20416;-68
2023/04/04 03:31:21;;;;;;;2.50;2.40;;;;;;;;;;5033086;28;20278;-68
2023/04/04 03:33:47;;;;;;;2.43;2.33;;;;;;;;;;5033184;28;20780;-68
2023/04/04 03:36:14;;;;;;;2.92;2.40;;;;;;;;;;5033430;28;20415;-68
2023/04/04 03:38:42;;;;;;;2.55;2.45;;;;;;;;;;5033105;28;20201;-68
2023/04/04 03:41:08;;;;;;;2.85;2.33;;;;;;;;;;5033128;28;20181;-67
2023/04/04 03:43:34;;;;;;;2.45;2.30;;;;;;;;;;5033006;28;20262;-68
2023/04/04 03:46:04;;;;;;;2.53;2.33;;;;;;;;;;5033056;28;20586;-68
2023/04/04 03:48:30;;;;;;;2.92;2.72;;;;;;;;;;5033019;28;20467;-68
2023/04/04 03:50:57;;;;;;;2.33;2.30;;;;;;;;;;5032815;28;20208;-68
2023/04/04 03:53:27;;;;;;;2.75;2.75;;;;;;;;;;5032720;28;20232;-68
2023/04/04 03:55:55;;;;;;;3.80;2.30;;;;;;;;;;5032777;28;20168;-68
2023/04/04 03:58:21;;;;;;;2.95;2.70;;;;;;;;;;5032857;28;20676;-68
2023/04/04 04:00:48;;;;;;;2.67;2.47;;;;;;;;;;5032616;28;20227;-68
2023/04/04 04:03:14;;;;;;;2.90;2.80;;;;;;;;;;5032708;28;20232;-68
2023/04/04 04:05:42;;;;;;;2.80;2.80;;;;;;;;;;5032501;28;20552;-68
2023/04/04 04:08:08;;;;;;;2.80;2.65;;;;;;;;;;5032798;28;20196;-68
2023/04/04 04:10:34;;;;;;;2.90;2.80;;;;;;;;;;5032813;28;20220;-68
2023/04/04 04:13:00;;;;;;;3.45;3.13;;;;;;;;;;5033137;28;20475;-68
2023/04/04 04:15:26;;;;;;;2.97;2.67;;;;;;;;;;5032901;28;20287;-68
2023/04/04 04:17:52;;;;;;;2.50;2.50;;;;;;;;;;5015043;28;20904;-68
2023/04/04 04:20:20;;;;;;;8.93;6.20;;;;;;;;;;5014933;28;20264;-68
2023/04/04 04:22:49;;;;;;;9.68;7.93;;;;;;;;;;5014993;28;20188;-68
2023/04/04 04:25:15;;;;;;;2.67;2.58;;;;;;;;;;5032362;28;20623;-68
2023/04/04 04:27:41;;;;;;;2.35;2.25;;;;;;;;;;5015082;28;20177;-68
2023/04/04 04:30:08;;;;;;;3.60;3.30;;;;;;;;;;5032620;28;20647;-68
2023/04/04 04:32:34;;;;;;;2.25;2.15;;;;;;;;;;5032594;28;20764;-68
2023/04/04 04:35:00;;;;;;;2.90;2.80;;;;;;;;;;5015097;28;20648;-68
2023/04/04 04:37:28;;;;;;;2.50;2.30;;;;;;;;;;5032717;28;20180;-68
2023/04/04 04:39:55;;;;;;;2.85;2.65;;;;;;;;;;5032690;28;20180;-68
2023/04/04 04:42:21;;;;;;;2.65;2.55;;;;;;;;;;5032638;28;20204;-68
2023/04/04 04:44:47;;;;;;;2.80;2.60;;;;;;;;;;5032679;28;20188;-68
2023/04/04 04:47:12;;;;;;;2.83;2.73;;;;;;;;;;5032772;28;20252;-68
2023/04/04 04:49:38;;;;;;;2.97;2.73;;;;;;;;;;5032943;28;20411;-68
2023/04/04 04:52:04;;;;;;;2.57;2.47;;;;;;;;;;5032513;28;20867;-68
2023/04/04 04:54:30;;;;;;;4.17;3.00;;;;;;;;;;5032519;28;20412;-68
2023/04/04 04:56:56;;;;;;;3.20;2.83;;;;;;;;;;5014481;28;20442;-68
2023/04/04 04:59:22;;;;;;;3.38;3.10;;;;;;;;;;5032392;28;20789;-68
2023/04/04 05:01:48;;;;;;;176.23;110.37;;;;;;;;;;5032600;28;20223;-68
2023/04/04 05:04:16;;;;;;;7.90;6.70;;;;;;;;;;5032568;28;20416;-68
2023/04/04 05:06:44;;;;;;;3.40;3.20;;;;;;;;;;5032409;28;20954;-68
2023/04/04 05:09:10;;;;;;;2.92;2.83;;;;;;;;;;5032428;28;20189;-68
2023/04/04 05:11:36;;;;;;;3.27;2.50;;;;;;;;;;5032928;28;20224;-68
2023/04/04 05:14:02;;;;;;;2.60;2.50;;;;;;;;;;5031998;28;20443;-68
2023/04/04 05:16:28;;;;;;;3.20;3.00;;;;;;;;;;5032166;28;20442;-68
2023/04/04 05:18:57;;;;;;;3.40;3.20;;;;;;;;;;5031926;28;20412;-68
2023/04/04 05:21:25;;;;;;;8.15;3.75;;;;;;;;;;5032057;28;20500;-68
2023/04/04 05:23:51;;;;;;;4.00;3.75;;;;;;;;;;5014113;28;20197;-68
2023/04/04 05:26:18;;;;;;;4.13;4.03;;;;;;;;;;5014360;28;20205;-69
2023/04/04 05:28:43;;;;;;;4.03;3.83;;;;;;;;;;5032050;28;20664;-68
2023/04/04 05:31:10;;;;;;;9.97;3.57;;;;;;;;;;5032061;28;20224;-68
2023/04/04 05:33:36;;;;;;;3.45;3.30;;;;;;;;;;5014713;28;20427;-68
2023/04/04 05:36:02;;;;;;;3.43;3.23;;;;;;;;;;5032085;28;20177;-68
2023/04/04 05:38:28;;;;;;;3.33;3.13;;;;;;;;;;5032098;28;20494;-68
2023/04/04 05:40:54;;;;;;;2.90;2.80;;;;;;;;;;5031648;28;20233;-68
2023/04/04 05:43:20;;;;;;;2.67;2.65;;;;;;;;;;5031897;28;20193;-68
2023/04/04 05:45:48;;;;;;;3.70;3.27;;;;;;;;;;5034131;28;20185;-67
2023/04/04 05:48:14;;;;;;;3.40;2.75;;;;;;;;;;5035514;28;20858;-68
2023/04/04 05:50:40;;;;;;;3.13;3.00;;;;;;;;;;5035753;28;20229;-68
2023/04/04 05:53:06;;;;;;;3.63;3.23;;;;;;;;;;5035491;28;20816;-68
2023/04/04 05:55:34;;;;;;;3.67;3.37;;;;;;;;;;5034969;28;20462;-68
2023/04/04 05:58:00;;;;;;;4.15;3.25;;;;;;;;;;5035300;28;20415;-68
2023/04/04 06:00:26;;;;;;;2.83;2.73;;;;;;;;;;5035591;28;20610;-68
2023/04/04 06:02:52;;;;;;;3.45;3.25;;;;;;;;;;5035378;28;20416;-68
2023/04/04 06:05:19;;;;;;;2.88;2.78;;;;;;;;;;5035405;28;20256;-67
2023/04/04 06:07:45;;;;;;;37.67;22.70;;;;;;;;;;5034714;28;20680;-67
2023/04/04 06:10:11;;;;;;;26.80;14.50;;;;;;;;;;5035185;28;20170;-67
2023/04/04 06:12:37;;;;;;;9.40;6.28;;;;;;;;;;5034996;28;20451;-67
2023/04/04 06:15:03;;;;;;;2.93;2.83;;;;;;;;;;5034848;28;20215;-67
2023/04/04 06:17:31;;;;;;;5.38;3.05;;;;;;;;;;5034492;28;20449;-67
2023/04/04 06:19:57;;;;;;;3.78;3.30;;;;;;;;;;5035052;28;20188;-67
2023/04/04 06:22:23;;;;;;;3.27;3.00;;;;;;;;;;5034592;28;20201;-67
2023/04/04 06:24:49;;;;;;;3.20;2.87;;;;;;;;;;5034655;28;20447;-67
2023/04/04 06:27:15;;;;;;;3.50;3.30;;;;;;;;;;5034368;28;20439;-68
2023/04/04 06:29:42;;;;;;;3.85;3.60;;;;;;;;;;5034840;28;20228;-69
2023/04/04 06:32:09;;;;;;;6.25;3.30;;;;;;;;;;5034687;28;20242;-68
2023/04/04 06:34:34;;;;;;;3.25;3.15;;;;;;;;;;5034899;28;20160;-68
2023/04/04 06:37:03;;;;;;;3.40;3.17;;;;;;;;;;5034732;28;20283;-69
2023/04/04 06:39:30;;;;;;;3.30;3.10;;;;;;;;;;5034458;28;20829;-68
2023/04/04 06:41:56;;;;;;;3.30;3.10;;;;;;;;;;5034688;28;20287;-68
2023/04/04 06:44:24;;;;;;;5.00;3.50;;;;;;;;;;5034610;28;20212;-67
2023/04/04 06:46:50;;;;;;;4.55;3.15;;;;;;;;;;5034496;28;20419;-67
2023/04/04 06:49:16;;;;;;;2.80;2.70;;;;;;;;;;5034344;28;20173;-66
2023/04/04 06:51:45;;;;;;;3.57;3.27;;;;;;;;;;5034277;28;20212;-67
2023/04/04 06:54:14;;;;;;;4.05;3.63;;;;;;;;;;5034320;28;20481;-67
2023/04/04 06:56:40;;;;;;;2.90;2.63;;;;;;;;;;5033416;28;20157;-67
2023/04/04 06:59:06;;;;;;;2.93;2.83;;;;;;;;;;5034510;28;20572;-67
2023/04/04 07:01:33;;;;;;;2.90;2.70;;;;;;;;;;5034217;28;20558;-68
2023/04/04 07:03:59;;;;;;;3.17;2.97;;;;;;;;;;5034323;28;20203;-68
2023/04/04 07:06:25;;;;;;;2.72;2.50;;;;;;;;;;5034315;28;20169;-68
2023/04/04 07:08:51;;;;;;;2.90;2.70;;;;;;;;;;5034055;28;20632;-68
2023/04/04 07:11:17;;;;;;;2.75;2.65;;;;;;;;;;5033834;28;20259;-68
2023/04/04 07:13:43;;;;;;;3.80;3.17;;;;;;;;;;5034061;28;20180;-68
2023/04/04 07:16:12;;;;;;;2.75;2.63;;;;;;;;;;5033886;28;20978;-68
2023/04/04 07:18:38;;;;;;;3.33;3.15;;;;;;;;;;5033833;28;20197;-68
2023/04/04 07:21:04;;;;;;;2.83;2.55;;;;;;;;;;5034047;28;20185;-68
2023/04/04 07:23:32;;;;;;;2.63;2.47;;;;;;;;;;5033864;28;20205;-68
2023/04/04 07:26:01;;;;;;;2.65;2.55;;;;;;;;;;5033907;28;20177;-68
2023/04/04 07:28:27;;;;;;;4.10;3.00;;;;;;;;;;5033845;28;20204;-67
2023/04/04 07:30:53;;;;;;;3.05;2.95;;;;;;;;;;5033834;28;20200;-68
2023/04/04 07:33:20;;;;;;;2.90;2.58;;;;;;;;;;5033724;28;20292;-68
2023/04/04 07:35:46;;;;;;;2.53;2.42;;;;;;;;;;5033501;28;20235;-69
2023/04/04 07:38:12;;;;;;;4.10;2.87;;;;;;;;;;5033518;28;20197;-68
2023/04/04 07:40:38;;;;;;;3.15;2.40;;;;;;;;;;5033282;28;20884;-68
2023/04/04 07:43:04;;;;;;;3.00;2.43;;;;;;;;;;5033274;28;20223;-68
2023/04/04 07:45:32;;;;;;;4.10;2.90;;;;;;;;;;5032974;28;20898;-68
2023/04/04 07:47:58;;;;;;;2.80;2.70;;;;;;;;;;5033008;28;20989;-68
2023/04/04 07:50:26;;;;;;;3.47;3.03;;;;;;;;;;5032934;28;20184;-67
2023/04/04 07:52:54;;;;;;;3.25;2.50;;;;;;;;;;5033042;28;20201;-68
2023/04/04 07:55:23;;;;;;;3.33;3.03;;;;;;;;;;5032949;28;20208;-68
2023/04/04 07:57:50;;;;;;;3.17;3.00;;;;;;;;;;5032957;28;20192;-67
2023/04/04 08:00:20;;;;;;;2.88;2.67;;;;;;;;;;5032622;28;20196;-67
2023/04/04 08:02:47;;;;;;;2.60;2.50;;;;;;;;;;5032418;28;20284;-68
2023/04/04 08:05:13;;;;;;;2.55;2.45;;;;;;;;;;5032667;28;20227;-67
2023/04/04 08:07:38;;;;;;;3.20;2.55;;;;;;;;;;5032338;28;20177;-67
2023/04/04 08:10:05;;;;;;;6.33;2.97;;;;;;;;;;5032757;28;20258;-67
2023/04/04 08:12:31;;;;;;;4.50;2.95;;;;;;;;;;5032684;28;20974;-67
2023/04/04 08:14:57;;;;;;;3.10;2.53;;;;;;;;;;5032621;28;20208;-67
2023/04/04 08:17:23;;;;;;;3.40;3.20;;;;;;;;;;5032644;28;20474;-67
2023/04/04 08:19:49;;;;;;;3.45;3.05;;;;;;;;;;5032111;28;20408;-67
2023/04/04 08:22:15;;;;;;;3.28;2.70;;;;;;;;;;5032618;28;20181;-67
2023/04/04 08:24:41;;;;;;;2.67;2.47;;;;;;;;;;5032330;28;20715;-67
2023/04/04 08:27:10;;;;;;;2.67;2.57;;;;;;;;;;5032610;28;20478;-67
2023/04/04 08:29:36;;;;;;;2.37;2.27;;;;;;;;;;5032389;28;20411;-67
2023/04/04 08:32:02;;;;;;;3.87;2.63;;;;;;;;;;5031496;28;20540;-67
2023/04/04 08:34:28;;;;;;;3.40;2.70;;;;;;;;;;5013943;28;20427;-67
2023/04/04 08:36:56;;;;;;;4.17;2.70;;;;;;;;;;5031742;28;20433;-67
2023/04/04 08:39:22;;;;;;;3.10;2.90;;;;;;;;;;5032487;28;20418;-67
2023/04/04 08:41:51;;;;;;;2.93;2.80;;;;;;;;;;5032450;28;20465;-70
2023/04/04 08:44:21;;;;;;;5.23;2.63;;;;;;;;;;5031523;28;20425;-68
2023/04/04 08:46:48;;;;;;;2.90;2.80;;;;;;;;;;5032250;28;20473;-67
2023/04/04 08:49:15;;;;;;;3.30;2.63;;;;;;;;;;5032062;28;20537;-67
2023/04/04 08:51:42;;;;;;;2.10;2.00;;;;;;;;;;5032129;28;20839;-68
2023/04/04 08:54:09;;;;;;;3.10;2.80;;;;;;;;;;5032371;28;21041;-69
2023/04/04 08:56:35;;;;;;;4.30;2.50;;;;;;;;;;5031688;28;20889;-68
2023/04/04 08:59:01;;;;;;;2.70;2.50;;;;;;;;;;5014225;28;20995;-68
2023/04/04 09:01:30;;;;;;;2.50;2.40;;;;;;;;;;5013982;28;20443;-68
2023/04/04 09:03:56;;;;;;;2.73;2.53;;;;;;;;;;5031877;28;20404;-67
2023/04/04 09:06:23;;;;;;;9.97;6.57;;;;;;;;;;5031731;28;20418;-68
2023/04/04 09:08:52;;;;;;;2.27;2.17;;;;;;;;;;5031963;28;20446;-67
2023/04/04 09:11:22;;;;;;;2.43;2.33;;;;;;;;;;5031979;28;21022;-68
2023/04/04 09:13:50;;;;;;;2.33;2.20;;;;;;;;;;5032042;28;20395;-68
2023/04/04 09:16:20;;;;;;;2.50;2.00;;;;;;;;;;5014169;28;20477;-68
2023/04/04 09:18:46;;;;;;;2.53;2.43;;;;;;;;;;5032163;28;20941;-69
2023/04/04 09:21:15;;;;;;;2.33;2.20;;;;;;;;;;5034883;28;20529;-69
2023/04/04 09:23:43;;;;;;;2.80;2.50;;;;;;;;;;5017988;28;20394;-68
2023/04/04 09:26:11;;;;;;;2.70;2.50;;;;;;;;;;5035686;28;20443;-68
2023/04/04 09:28:37;;;;;;;2.40;2.30;;;;;;;;;;5035743;28;20416;-68
2023/04/04 09:31:06;;;;;;;5.77;2.30;;;;;;;;;;5035639;28;20509;-68
2023/04/04 09:33:32;;;;;;;2.87;2.67;;;;;;;;;;5035513;28;20531;-68
2023/04/04 09:35:59;;;;;;;2.07;1.97;;;;;;;;;;5035393;28;20383;-69
2023/04/04 09:38:26;;;;;;;7.60;6.83;;;;;;;;;;5035853;28;20436;-68
2023/04/04 09:40:52;;;;;;;2.83;2.60;;;;;;;;;;5035026;28;20737;-69
2023/04/04 09:43:21;;;;;;;2.10;2.00;;;;;;;;;;5035551;28;20798;-68
2023/04/04 09:45:47;;;;;;;2.80;2.70;;;;;;;;;;5035321;28;20394;-69
2023/04/04 09:48:13;;;;;;;3.00;2.80;;;;;;;;;;5035127;28;20424;-68
2023/04/04 09:50:45;;;;;;;7.83;2.60;;;;;;;;;;5034946;28;20566;-68
2023/04/04 09:53:20;;;;;;;3.20;2.90;;;;;;;;;;5035165;28;20465;-68
2023/04/04 09:55:50;;;;;;;2.57;2.40;;;;;;;;;;5035231;28;20437;-68
2023/04/04 09:58:20;;;;;;;2.57;2.37;;;;;;;;;;5036208;28;20411;-68
2023/04/04 10:00:47;;;;;;;3.30;3.00;;;;;;;;;;5035634;28;20451;-69
2023/04/04 10:03:16;;;;;;;2.43;2.43;;;;;;;;;;5035222;28;20455;-68
2023/04/04 10:05:45;;;;;;;3.47;2.70;;;;;;;;;;5035196;28;20523;-68
2023/04/04 10:08:21;;;;;;;11.50;3.30;;;;;;;;;;5035979;28;20427;-67
2023/04/04 10:10:48;;;;;;;2.67;2.57;;;;;;;;;;5037915;28;20924;-67
2023/04/04 10:13:21;;;;;;;5.40;3.10;;;;;;;;;;5037470;28;20822;-66
2023/04/04 10:15:47;;;;;;;3.77;3.57;;;;;;;;;;5037732;28;20420;-67
2023/04/04 10:18:14;;;;;;;2.50;2.50;;;;;;;;;;5037861;28;21025;-67
2023/04/04 10:20:42;;;;;;;2.80;2.70;;;;;;;;;;5036921;28;20471;-68
2023/04/04 10:23:08;;;;;;;3.43;2.70;;;;;;;;;;5034979;28;20812;-68
2023/04/04 10:25:35;;;;;;;2.93;2.73;;;;;;;;;;5035339;28;20528;-69
2023/04/04 10:28:02;;;;;;;2.30;2.30;;;;;;;;;;5034901;28;20880;-68
2023/04/04 10:30:30;;;;;;;2.60;2.40;;;;;;;;;;5016145;28;20910;-69
2023/04/04 10:33:16;;;;;;;3.00;2.60;;;;;;;;;;5034862;28;20400;-69
2023/04/04 10:35:47;;;;;;;3.03;2.70;;;;;;;;;;5034512;28;20423;-69
2023/04/04 10:38:13;;;;;;;2.70;2.60;;;;;;;;;;5034655;28;20423;-68
2023/04/04 10:40:41;;;;;;;2.53;2.43;;;;;;;;;;5034767;28;20558;-69
2023/04/04 10:43:07;;;;;;;3.20;3.00;;;;;;;;;;5034533;28;20447;-65
2023/04/04 10:45:34;;;;;;;2.80;2.70;;;;;;;;;;5034663;28;20440;-66
2023/04/04 10:48:00;;;;;;;2.70;2.50;;;;;;;;;;5034375;28;20424;-66
2023/04/04 10:50:27;;;;;;;2.50;2.40;;;;;;;;;;5034272;28;20522;-66
2023/04/04 10:52:53;;;;;;;2.70;2.47;;;;;;;;;;5034493;28;20404;-66
2023/04/04 10:55:21;;;;;;;2.80;2.60;;;;;;;;;;5016274;28;20420;-64
2023/04/04 10:57:51;;;;;;;3.43;2.40;;;;;;;;;;5034378;28;20447;-65
2023/04/04 11:00:18;;;;;;;2.93;2.63;;;;;;;;;;5034471;28;20439;-65
2023/04/04 11:02:56;;;;;;;6.20;2.90;;;;;;;;;;5034994;28;20450;-65
2023/04/04 11:05:28;;;;;;;6.27;2.23;;;;;;;;;;5034826;28;20829;-65
2023/04/04 11:07:58;;;;;;;3.70;2.03;;;;;;;;;;5034542;28;20507;-65
2023/04/04 11:10:30;;;;;;;6.30;2.27;;;;;;;;;;5034316;28;20420;-65
2023/04/04 11:13:06;;;;;;;2.77;2.57;;;;;;;;;;5034460;28;20444;-64
2023/04/04 11:16:03;;;;;;;2.77;2.67;;;;;;;;;;5034324;28;20879;-62
2023/04/04 11:18:45;;;;;;;2.97;2.87;;;;;;;;;;5032638;28;20942;-63
2023/04/04 11:21:18;;;;;;;2.77;2.57;;;;;;;;;;5033546;28;20487;-63
2023/04/04 11:23:47;;;;;;;2.50;2.30;;;;;;;;;;5033193;28;20443;-63
2023/04/04 11:26:16;;;;;;;2.90;2.57;;;;;;;;;;5033412;28;20446;-63
2023/04/04 11:28:44;;;;;;;2.27;2.17;;;;;;;;;;5033196;28;20412;-63
2023/04/04 11:31:21;;;;;;;2.50;2.23;;;;;;;;;;5033138;28;20463;-64
2023/04/04 11:34:06;;;;;;;3.70;2.63;;;;;;;;;;5033158;28;20423;-64
2023/04/04 11:36:35;;;;;;;3.57;1.93;;;;;;;;;;5033112;28;20422;-64
2023/04/04 11:39:08;;;;;;;3.50;2.27;;;;;;;;;;5033192;28;20412;-62
2023/04/04 11:41:50;;;;;;;2.47;2.17;;;;;;;;;;5033216;28;20535;-63
2023/04/04 11:44:16;;;;;;;4.27;2.30;;;;;;;;;;5032839;28;20483;-62
2023/04/04 11:46:42;;;;;;;2.77;1.83;;;;;;;;;;5032806;28;20456;-63
2023/04/04 11:49:10;;;;;;;2.93;2.37;;;;;;;;;;5033167;28;20513;-63
2023/04/04 11:51:36;;;;;;;2.70;2.50;;;;;;;;;;5014866;28;20823;-62
2023/04/04 11:54:02;;;;;;;2.33;2.23;;;;;;;;;;5032616;28;20495;-62
2023/04/04 11:56:35;;;;;;;2.83;2.00;;;;;;;;;;5014344;28;20465;-63
2023/04/04 11:59:06;;;;;;;2.43;2.20;;;;;;;;;;5015080;28;20476;-63
2023/04/04 12:01:32;;;;;;;5.00;2.23;;;;;;;;;;5014696;28;20442;-63
2023/04/04 12:04:00;;;;;;;2.77;2.57;;;;;;;;;;5032244;28;20483;-63
2023/04/04 12:06:29;;;;;;;2.87;2.60;;;;;;;;;;5032444;28;20498;-63
2023/04/04 12:08:57;;;;;;;5.70;2.27;;;;;;;;;;5032465;28;20481;-63
2023/04/04 12:11:25;;;;;;;5.60;5.17;;;;;;;;;;5032696;28;20465;-63
2023/04/04 12:13:54;;;;;;;5.17;2.47;;;;;;;;;;5032648;28;20450;-63
2023/04/04 12:16:20;;;;;;;2.57;2.27;;;;;;;;;;5032394;28;20421;-63
2023/04/04 12:18:46;;;;;;;2.20;2.00;;;;;;;;;;5032299;28;20889;-63
2023/04/04 12:21:12;;;;;;;2.67;2.57;;;;;;;;;;5032241;28;20427;-63
2023/04/04 12:23:38;;;;;;;2.70;2.57;;;;;;;;;;5032306;28;20420;-63
2023/04/04 12:26:10;;;;;;;2.50;2.30;;;;;;;;;;5032272;28;20495;-63
2023/04/04 12:28:38;;;;;;;2.40;2.30;;;;;;;;;;5032196;28;20423;-63
2023/04/04 12:31:05;;;;;;;4.33;2.60;;;;;;;;;;5032399;28;20521;-64
2023/04/04 12:33:35;;;;;;;3.10;2.70;;;;;;;;;;5032607;28;20506;-62
2023/04/04 12:36:02;;;;;;;2.70;2.50;;;;;;;;;;5032374;28;20419;-63
2023/04/04 12:38:30;;;;;;;5.33;3.10;;;;;;;;;;5014461;28;20438;-63
2023/04/04 12:40:59;;;;;;;4.00;2.63;;;;;;;;;;5032009;28;20414;-63
2023/04/04 12:43:28;;;;;;;2.20;2.10;;;;;;;;;;5032059;28;20428;-63
2023/04/04 12:45:56;;;;;;;2.37;2.27;;;;;;;;;;5031994;28;20420;-62
2023/04/04 12:48:27;;;;;;;2.67;2.57;;;;;;;;;;5031852;28;20449;-62
2023/04/04 12:50:56;;;;;;;3.30;3.10;;;;;;;;;;5032053;28;20464;-63
2023/04/04 12:53:26;;;;;;;2.97;2.77;;;;;;;;;;5032000;28;20518;-62
2023/04/04 12:55:53;;;;;;;3.43;3.23;;;;;;;;;;5034345;28;20415;-64
2023/04/04 12:58:22;;;;;;;7.13;5.13;;;;;;;;;;5036131;28;20717;-62
2023/04/04 13:00:50;;;;;;;2.10;2.00;;;;;;;;;;5035886;28;20446;-62
2023/04/04 13:03:16;;;;;;;2.93;2.70;;;;;;;;;;5036199;28;20945;-62
2023/04/04 13:05:46;;;;;;;3.23;3.03;;;;;;;;;;5035943;28;20413;-62
2023/04/04 13:08:12;;;;;;;2.80;2.70;;;;;;;;;;5036037;28;20408;-62
2023/04/04 13:10:57;;;;;;;2.83;2.63;;;;;;;;;;5035854;28;20490;-63
2023/04/04 13:13:37;;;;;;;5.73;2.90;;;;;;;;;;5035758;28;20947;-63
2023/04/04 13:16:07;;;;;;;3.03;2.83;;;;;;;;;;5017954;28;20495;-63
2023/04/04 13:18:37;;;;;;;2.87;2.67;;;;;;;;;;5035751;28;20420;-63
2023/04/04 13:21:04;;;;;;;2.93;2.63;;;;;;;;;;5035755;28;20783;-63
2023/04/04 13:23:30;;;;;;;3.70;3.20;;;;;;;;;;5035591;28;20405;-62
2023/04/04 13:25:58;;;;;;;2.90;2.80;;;;;;;;;;5035332;28;20413;-62
2023/04/04 13:28:26;;;;;;;3.13;2.77;;;;;;;;;;5035561;28;20769;-62
2023/04/04 13:30:52;;;;;;;3.27;2.80;;;;;;;;;;5035226;28;20578;-62
2023/04/04 13:33:21;;;;;;;3.33;3.13;;;;;;;;;;5035366;28;20527;-62
2023/04/04 13:35:47;;;;;;;6.47;3.13;;;;;;;;;;5035612;28;20479;-62
2023/04/04 13:38:13;;;;;;;2.73;2.63;;;;;;;;;;5035199;28;20438;-62
2023/04/04 13:40:39;;;;;;;2.73;2.63;;;;;;;;;;5035341;28;20425;-62
2023/04/04 13:43:05;;;;;;;4.40;2.70;;;;;;;;;;5035005;28;20491;-62
2023/04/04 13:45:34;;;;;;;2.50;2.40;;;;;;;;;;5035229;28;20906;-62
2023/04/04 13:48:01;;;;;;;3.57;2.97;;;;;;;;;;5035206;28;20416;-63
2023/04/04 13:50:27;;;;;;;2.90;2.70;;;;;;;;;;5035353;28;20414;-63
2023/04/04 13:52:53;;;;;;;3.00;2.70;;;;;;;;;;5017512;28;20828;-63
2023/04/04 13:55:20;;;;;;;5.27;3.30;;;;;;;;;;5035118;28;20434;-63
2023/04/04 13:57:46;;;;;;;3.10;3.00;;;;;;;;;;5035137;28;20755;-63
2023/04/04 14:00:12;;;;;;;4.00;3.50;;;;;;;;;;5035068;28;20511;-63
2023/04/04 14:02:38;;;;;;;3.00;2.90;;;;;;;;;;5035000;28;20409;-64
2023/04/04 14:05:05;;;;;;;3.27;2.90;;;;;;;;;;5034912;28;20449;-63
2023/04/04 14:07:34;;;;;;;3.33;3.10;;;;;;;;;;5034201;28;20435;-63
2023/04/04 14:10:00;;;;;;;3.13;2.83;;;;;;;;;;5034951;28;20436;-63
2023/04/04 14:12:26;;;;;;;3.17;2.97;;;;;;;;;;5034603;28;20462;-63
2023/04/04 14:14:52;;;;;;;4.23;4.00;;;;;;;;;;5034789;28;20412;-63
2023/04/04 14:17:21;;;;;;;3.50;3.30;;;;;;;;;;5034535;28;20770;-63
2023/04/04 14:19:47;;;;;;;7.37;3.30;;;;;;;;;;5034595;28;20420;-63
2023/04/04 14:22:13;;;;;;;2.90;2.50;;;;;;;;;;5034414;28;20496;-63
2023/04/04 14:24:41;;;;;;;3.03;2.93;;;;;;;;;;5016533;28;20416;-64
2023/04/04 14:27:07;;;;;;;3.30;2.97;;;;;;;;;;5034337;28;20474;-63
2023/04/04 14:29:33;;;;;;;2.87;2.77;;;;;;;;;;5034410;28;20839;-65
2023/04/04 14:31:59;;;;;;;4.60;2.77;;;;;;;;;;5016567;28;20463;-63
2023/04/04 14:34:26;;;;;;;3.13;2.77;;;;;;;;;;5034018;28;20418;-64
2023/04/04 14:36:52;;;;;;;3.10;2.90;;;;;;;;;;5034304;28;20452;-63
2023/04/04 14:39:21;;;;;;;4.23;3.13;;;;;;;;;;5034051;28;20530;-63
2023/04/04 14:41:47;;;;;;;2.87;2.63;;;;;;;;;;5033786;28;20447;-64
2023/04/04 14:44:14;;;;;;;2.73;2.60;;;;;;;;;;5033801;28;20427;-64